createdAt,value
2024-01-14T00:00:42.965Z,97111.42
2024-01-14T00:03:10.413Z,97107.34
2024-01-14T00:05:37.764Z,97100.49
2024-01-14T00:08:05.517Z,97091.46
2024-01-14T00:10:32.671Z,97095.86
2024-01-14T00:12:59.884Z,97088.39
2024-01-14T00:15:27.097Z,97087.45
2024-01-14T00:17:54.354Z,97086.61
2024-01-14T00:20:21.751Z,97079.45
2024-01-14T00:22:49.232Z,97069.30
2024-01-14T00:25:18.676Z,97066.80
2024-01-14T00:27:45.840Z,97063.24
2024-01-14T00:30:13.204Z,97054.94
2024-01-14T00:32:40.511Z,97059.19
2024-01-14T00:35:08.194Z,97055.30
2024-01-14T00:37:35.336Z,97062.21
2024-01-14T00:40:02.446Z,97058.96
2024-01-14T00:42:29.632Z,97060.89
2024-01-14T00:44:56.888Z,97057.79
2024-01-14T00:47:24.205Z,97056.73
2024-01-14T00:49:51.448Z,97052.58
2024-01-14T00:52:18.745Z,97055.77
2024-01-14T00:54:45.968Z,97049.08
2024-01-14T00:57:13.163Z,97042.09
2024-01-14T00:59:40.583Z,97038.64
2024-01-14T01:02:08.005Z,97033.88
2024-01-14T01:04:35.141Z,97022.39
2024-01-14T01:07:02.293Z,97024.77
2024-01-14T01:09:29.501Z,97024.29
2024-01-14T01:11:56.751Z,97014.77
2024-01-14T01:14:23.945Z,97010.67
2024-01-14T01:16:51.097Z,97008.14
2024-01-14T01:19:18.306Z,97005.48
2024-01-14T01:21:45.533Z,97005.14
2024-01-14T01:24:16.068Z,97005.13
2024-01-14T01:26:43.299Z,96994.27
2024-01-14T01:29:10.367Z,96990.15
2024-01-14T01:31:45.950Z,96988.89
2024-01-14T01:34:17.116Z,96978.23
2024-01-14T01:36:44.402Z,96977.95
2024-01-14T01:39:11.567Z,96973.11
2024-01-14T01:41:38.867Z,96972.84
2024-01-14T01:44:06.074Z,96968.63
2024-01-14T01:46:35.795Z,96964.75
2024-01-14T01:49:04.429Z,96967.16
2024-01-14T01:51:32.809Z,96966.27
2024-01-14T01:54:00.145Z,96963.37
2024-01-14T01:56:27.981Z,96965.09
2024-01-14T01:58:55.445Z,96950.88
2024-01-14T02:01:23.141Z,96954.43
2024-01-14T02:03:54.173Z,96951.16
2024-01-14T02:06:22.759Z,96952.52
2024-01-14T02:08:50.454Z,96946.23
2024-01-14T02:11:17.716Z,96947.38
2024-01-14T02:13:44.918Z,96945.94
2024-01-14T02:16:12.007Z,96944.55
2024-01-14T02:18:39.222Z,96937.69
2024-01-14T02:21:09.924Z,96933.89
2024-01-14T02:23:41.220Z,96935.20
2024-01-14T02:26:08.650Z,96934.15
2024-01-14T02:28:35.800Z,96925.63
2024-01-14T02:31:03.729Z,96922.09
2024-01-14T02:33:31.092Z,96920.06
2024-01-14T02:35:58.403Z,96925.67
2024-01-14T02:38:25.531Z,96920.56
2024-01-14T02:40:52.811Z,96916.82
2024-01-14T02:43:19.954Z,96912.79
2024-01-14T02:45:47.104Z,96902.48
2024-01-14T02:48:14.238Z,96891.38
2024-01-14T02:50:41.474Z,96885.56
2024-01-14T02:53:09.205Z,96886.91
2024-01-14T02:55:36.355Z,96881.22
2024-01-14T02:58:03.629Z,96874.80
2024-01-14T03:00:30.936Z,96868.83
2024-01-14T03:02:58.252Z,96863.39
2024-01-14T03:05:25.520Z,96859.79
2024-01-14T03:07:52.760Z,96853.77
2024-01-14T03:10:19.924Z,96853.06
2024-01-14T03:12:47.066Z,96854.65
2024-01-14T03:15:14.487Z,96855.14
2024-01-14T03:17:41.764Z,96855.46
2024-01-14T03:20:09.787Z,96851.56
2024-01-14T03:22:37.126Z,96855.59
2024-01-14T03:25:04.672Z,96854.74
2024-01-14T03:27:31.849Z,96850.77
2024-01-14T03:29:59.022Z,96845.13
2024-01-14T03:32:26.208Z,96841.19
2024-01-14T03:34:53.313Z,96843.98
2024-01-14T03:37:20.515Z,96845.97
2024-01-14T03:39:47.712Z,96845.73
2024-01-14T03:42:14.790Z,96836.30
2024-01-14T03:44:43.344Z,96823.34
2024-01-14T03:47:10.496Z,96822.61
2024-01-14T03:49:38.007Z,96820.01
2024-01-14T03:52:05.330Z,96815.90
2024-01-14T03:54:32.635Z,96817.64
2024-01-14T03:56:59.942Z,96815.02
2024-01-14T03:59:27.173Z,96815.73
2024-01-14T04:01:54.224Z,96814.55
2024-01-14T04:04:21.388Z,96818.73
2024-01-14T04:06:48.813Z,96819.35
2024-01-14T04:09:16.272Z,96810.54
2024-01-14T04:11:43.653Z,96816.45
2024-01-14T04:14:10.878Z,96802.81
2024-01-14T04:16:39.451Z,96802.67
2024-01-14T04:19:07.397Z,96805.46
2024-01-14T04:21:35.318Z,96799.01
2024-01-14T04:24:05.767Z,96791.82
2024-01-14T04:26:32.964Z,96796.30
2024-01-14T04:29:00.204Z,96791.83
2024-01-14T04:31:27.736Z,96795.77
2024-01-14T04:33:55.193Z,96789.63
2024-01-14T04:36:22.399Z,96793.89
2024-01-14T04:38:49.675Z,96793.06
2024-01-14T04:41:16.975Z,96791.61
2024-01-14T04:43:44.254Z,96791.16
2024-01-14T04:46:12.102Z,96791.09
2024-01-14T04:48:39.516Z,96792.14
2024-01-14T04:51:06.994Z,96786.63
2024-01-14T04:53:34.230Z,96781.50
2024-01-14T04:56:02.119Z,96783.36
2024-01-14T04:58:29.183Z,96781.30
2024-01-14T05:00:56.406Z,96785.02
2024-01-14T05:03:23.757Z,96785.15
2024-01-14T05:05:51.333Z,96783.77
2024-01-14T05:08:18.700Z,96786.54
2024-01-14T05:10:46.116Z,96786.91
2024-01-14T05:13:13.517Z,96793.83
2024-01-14T05:15:40.814Z,96794.36
2024-01-14T05:18:08.289Z,96789.86
2024-01-14T05:20:35.650Z,96796.32
2024-01-14T05:23:05.391Z,96791.84
2024-01-14T05:25:32.571Z,96787.75
2024-01-14T05:27:59.721Z,96777.42
2024-01-14T05:30:27.091Z,96775.66
2024-01-14T05:32:54.789Z,96769.63
2024-01-14T05:35:21.965Z,96772.42
2024-01-14T05:37:49.106Z,96765.35
2024-01-14T05:40:16.226Z,96761.02
2024-01-14T05:42:44.105Z,96755.62
2024-01-14T05:45:14.241Z,96756.39
2024-01-14T05:47:41.968Z,96754.30
2024-01-14T05:50:10.006Z,96755.89
2024-01-14T05:52:37.157Z,96760.74
2024-01-14T05:55:05.636Z,96764.48
2024-01-14T05:57:32.982Z,96760.30
2024-01-14T06:00:00.637Z,96759.05
2024-01-14T06:02:29.157Z,96763.63
2024-01-14T06:04:56.487Z,96759.05
2024-01-14T06:07:23.849Z,96753.36
2024-01-14T06:09:51.125Z,96752.21
2024-01-14T06:12:18.331Z,96754.64
2024-01-14T06:14:45.525Z,96751.29
2024-01-14T06:17:12.812Z,96751.80
2024-01-14T06:19:42.739Z,96752.94
2024-01-14T06:22:10.103Z,96753.84
2024-01-14T06:24:37.410Z,96743.24
2024-01-14T06:27:05.185Z,96745.33
2024-01-14T06:29:32.300Z,96743.05
2024-01-14T06:32:02.461Z,96740.42
2024-01-14T06:34:29.643Z,96745.12
2024-01-14T06:36:56.976Z,96741.61
2024-01-14T06:39:24.086Z,96741.59
2024-01-14T06:41:53.275Z,96745.13
2024-01-14T06:44:20.503Z,96746.63
2024-01-14T06:46:48.045Z,96749.79
2024-01-14T06:49:15.346Z,96753.76
2024-01-14T06:51:46.956Z,96752.58
2024-01-14T06:54:14.254Z,96749.83
2024-01-14T06:56:45.688Z,96739.59
2024-01-14T06:59:19.684Z,96742.20
2024-01-14T07:01:50.759Z,96747.34
2024-01-14T07:04:18.252Z,96742.54
2024-01-14T07:06:45.777Z,96745.52
2024-01-14T07:09:14.285Z,96746.91
2024-01-14T07:11:41.716Z,96752.55
2024-01-14T07:14:08.926Z,96749.96
2024-01-14T07:16:37.402Z,96748.36
2024-01-14T07:19:05.200Z,96750.83
2024-01-14T07:21:32.880Z,96747.39
2024-01-14T07:24:00.474Z,96738.61
2024-01-14T07:26:27.926Z,96740.58
2024-01-14T07:28:55.410Z,96739.17
2024-01-14T07:31:28.160Z,96736.02
2024-01-14T07:33:55.692Z,96733.65
2024-01-14T07:36:23.549Z,96731.73
2024-01-14T07:38:53.173Z,96734.75
2024-01-14T07:41:20.754Z,96735.05
2024-01-14T07:43:48.030Z,96730.84
2024-01-14T07:46:15.186Z,96728.30
2024-01-14T07:48:43.821Z,96728.36
2024-01-14T07:51:11.402Z,96730.77
2024-01-14T07:53:38.574Z,96727.18
2024-01-14T07:56:06.350Z,96730.00
2024-01-14T07:58:33.495Z,96732.30
2024-01-14T08:01:03.333Z,96733.96
2024-01-14T08:03:34.490Z,96736.58
2024-01-14T08:06:02.041Z,96740.10
2024-01-14T08:08:30.410Z,96742.15
2024-01-14T08:10:57.489Z,96746.97
2024-01-14T08:13:25.015Z,96747.09
2024-01-14T08:15:58.177Z,96749.80
2024-01-14T08:18:31.686Z,96747.45
2024-01-14T08:21:00.321Z,96748.11
2024-01-14T08:23:31.269Z,96746.52
2024-01-14T08:25:59.180Z,96755.64
2024-01-14T08:28:26.395Z,96754.56
2024-01-14T08:30:53.780Z,96757.81
2024-01-14T08:33:21.180Z,96761.45
2024-01-14T08:35:48.345Z,96759.48
2024-01-14T08:38:15.501Z,96770.36
2024-01-14T08:40:42.695Z,96768.98
2024-01-14T08:43:10.001Z,96766.89
2024-01-14T08:45:37.287Z,96771.30
2024-01-14T08:48:06.636Z,96775.19
2024-01-14T08:50:34.234Z,96775.31
2024-01-14T08:53:01.339Z,96772.46
2024-01-14T08:55:30.104Z,96775.96
2024-01-14T08:57:57.333Z,96777.28
2024-01-14T09:00:24.748Z,96773.75
2024-01-14T09:02:52.006Z,96775.05
2024-01-14T09:05:19.499Z,96778.08
2024-01-14T09:07:46.776Z,96778.02
2024-01-14T09:10:14.150Z,96775.29
2024-01-14T09:12:41.324Z,96780.60
2024-01-14T09:15:09.065Z,96785.20
2024-01-14T09:17:36.506Z,96783.67
2024-01-14T09:20:05.243Z,96785.27
2024-01-14T09:22:32.577Z,96783.78
2024-01-14T09:24:59.682Z,96783.25
2024-01-14T09:27:29.438Z,96785.37
2024-01-14T09:29:56.666Z,96781.40
2024-01-14T09:32:23.884Z,96781.29
2024-01-14T09:34:51.153Z,96783.14
2024-01-14T09:37:18.559Z,96778.05
2024-01-14T09:39:46.331Z,96778.13
2024-01-14T09:42:36.320Z,96775.55
2024-01-14T09:45:06.132Z,96770.39
2024-01-14T09:47:34.545Z,96770.98
2024-01-14T09:50:02.455Z,96771.25
2024-01-14T09:52:34.345Z,96771.31
2024-01-14T09:55:02.375Z,96766.66
2024-01-14T09:57:33.392Z,96767.53
2024-01-14T10:00:07.602Z,96765.22
2024-01-14T10:02:38.097Z,96763.48
2024-01-14T10:05:05.963Z,96762.13
2024-01-14T10:07:34.259Z,96760.94
2024-01-14T10:10:02.171Z,96760.52
2024-01-14T10:12:29.836Z,96754.50
2024-01-14T10:15:02.124Z,96755.69
2024-01-14T10:17:29.557Z,96757.48
2024-01-14T10:19:59.335Z,96757.70
2024-01-14T10:22:29.880Z,96754.10
2024-01-14T10:24:58.166Z,96750.58
2024-01-14T10:27:35.416Z,96751.33
2024-01-14T10:30:10.946Z,96747.59
2024-01-14T10:33:15.457Z,96747.45
2024-01-14T10:35:26.700Z,96746.30
2024-01-14T10:37:54.145Z,96742.80
2024-01-14T10:40:21.496Z,96744.51
2024-01-14T10:42:48.828Z,96744.65
2024-01-14T10:45:16.186Z,96752.58
2024-01-14T10:47:48.321Z,96753.34
2024-01-14T10:50:19.384Z,96753.39
2024-01-14T10:52:57.403Z,96757.46
2024-01-14T10:55:41.963Z,96747.52
2024-01-14T10:58:19.259Z,96743.88
2024-01-14T11:00:51.645Z,96749.02
2024-01-14T11:03:20.177Z,96738.46
2024-01-14T11:05:47.679Z,96734.52
2024-01-14T11:08:17.900Z,96731.96
2024-01-14T11:10:45.980Z,96731.59
2024-01-14T11:13:29.916Z,96733.50
2024-01-14T11:16:15.045Z,96727.96
2024-01-14T11:19:02.597Z,96732.81
2024-01-14T11:22:17.574Z,96728.33
2024-01-14T11:24:53.128Z,96722.80
2024-01-14T11:27:25.087Z,96727.23
2024-01-14T11:29:53.000Z,96725.96
2024-01-14T11:32:25.452Z,96718.25
2024-01-14T11:34:55.975Z,96719.92
2024-01-14T11:37:43.358Z,96717.67
2024-01-14T11:40:31.545Z,96718.77
2024-01-14T11:43:09.037Z,96709.20
2024-01-14T11:45:38.197Z,96720.67
2024-01-14T11:48:07.852Z,96720.08
2024-01-14T11:50:37.567Z,96720.36
2024-01-14T11:53:08.766Z,96723.52
2024-01-14T11:55:36.317Z,96722.06
2024-01-14T11:58:15.514Z,96722.84
2024-01-14T12:00:44.428Z,96717.09
2024-01-14T12:03:14.180Z,96711.17
2024-01-14T12:05:42.346Z,96709.11
2024-01-14T12:08:10.601Z,96704.91
2024-01-14T12:10:38.024Z,96708.48
2024-01-14T12:13:09.150Z,96711.05
2024-01-14T12:15:38.593Z,96709.50
2024-01-14T12:18:08.112Z,96710.94
2024-01-14T12:20:35.968Z,96712.54
2024-01-14T12:23:07.492Z,96714.29
2024-01-14T12:25:37.540Z,96717.39
2024-01-14T12:28:05.567Z,96720.86
2024-01-14T12:30:36.908Z,96710.80
2024-01-14T12:33:07.015Z,96717.02
2024-01-14T12:35:36.478Z,96716.02
2024-01-14T12:38:05.005Z,96716.77
2024-01-14T12:40:32.668Z,96710.48
2024-01-14T12:43:01.266Z,96710.93
2024-01-14T12:45:28.512Z,96709.77
2024-01-14T12:48:03.390Z,96707.96
2024-01-14T12:50:34.880Z,96703.85
2024-01-14T12:53:06.872Z,96707.27
2024-01-14T12:55:34.021Z,96704.59
2024-01-14T12:58:02.486Z,96707.78
2024-01-14T13:00:33.159Z,96704.92
2024-01-14T13:03:01.114Z,96706.47
2024-01-14T13:05:28.560Z,96707.70
2024-01-14T13:07:55.856Z,96707.34
2024-01-14T13:10:22.996Z,96710.23
2024-01-14T13:12:50.438Z,96702.64
2024-01-14T13:15:18.184Z,96698.67
2024-01-14T13:17:46.072Z,96702.31
2024-01-14T13:20:13.686Z,96704.55
2024-01-14T13:22:40.914Z,96700.71
2024-01-14T13:25:08.877Z,96700.51
2024-01-14T13:27:36.361Z,96698.08
2024-01-14T13:30:05.736Z,96697.42
2024-01-14T13:32:38.585Z,96697.34
2024-01-14T13:35:07.942Z,96700.30
2024-01-14T13:37:39.242Z,96700.34
2024-01-14T13:40:07.182Z,96703.06
2024-01-14T13:42:37.784Z,96702.95
2024-01-14T13:45:07.618Z,96704.04
2024-01-14T13:47:35.482Z,96705.23
2024-01-14T13:50:04.573Z,96704.80
2024-01-14T13:52:32.290Z,96705.21
2024-01-14T13:54:59.753Z,96703.06
2024-01-14T13:57:27.196Z,96703.86
2024-01-14T13:59:54.488Z,96701.38
2024-01-14T14:02:23.560Z,96694.83
2024-01-14T14:05:02.450Z,96690.83
2024-01-14T14:07:35.084Z,96695.00
2024-01-14T14:10:02.162Z,96695.83
2024-01-14T14:12:29.485Z,96694.48
2024-01-14T14:14:58.170Z,96698.08
2024-01-14T14:17:25.400Z,96700.08
2024-01-14T14:19:53.073Z,96697.16
2024-01-14T14:22:21.569Z,96691.23
2024-01-14T14:24:49.353Z,96693.64
2024-01-14T14:27:19.471Z,96693.35
2024-01-14T14:29:48.724Z,96698.34
2024-01-14T14:32:16.001Z,96700.71
2024-01-14T14:34:44.318Z,96693.11
2024-01-14T14:37:11.619Z,96699.13
2024-01-14T14:39:38.733Z,96698.65
2024-01-14T14:42:08.667Z,96694.19
2024-01-14T14:44:36.357Z,96696.75
2024-01-14T14:47:03.763Z,96696.75
2024-01-14T14:49:31.023Z,96694.47
2024-01-14T14:51:58.457Z,96693.61
2024-01-14T14:54:25.705Z,96692.56
2024-01-14T14:56:52.936Z,96690.73
2024-01-14T14:59:21.858Z,96691.23
2024-01-14T15:01:49.629Z,96690.75
2024-01-14T15:04:17.433Z,96685.84
2024-01-14T15:06:46.588Z,96688.09
2024-01-14T15:09:16.176Z,96688.11
2024-01-14T15:11:43.707Z,96688.31
2024-01-14T15:14:11.818Z,96681.86
2024-01-14T15:16:41.742Z,96685.94
2024-01-14T15:19:09.536Z,96684.47
2024-01-14T15:21:37.587Z,96689.59
2024-01-14T15:24:05.102Z,96688.46
2024-01-14T15:26:32.518Z,96687.78
2024-01-14T15:28:59.776Z,96686.89
2024-01-14T15:31:27.086Z,96684.70
2024-01-14T15:33:54.629Z,96687.08
2024-01-14T15:36:22.765Z,96688.58
2024-01-14T15:38:50.677Z,96680.92
2024-01-14T15:41:17.961Z,96681.25
2024-01-14T15:43:45.164Z,96678.02
2024-01-14T15:46:12.302Z,96676.31
2024-01-14T15:48:42.526Z,96676.65
2024-01-14T15:51:13.668Z,96672.51
2024-01-14T15:53:43.014Z,96666.70
2024-01-14T15:56:10.914Z,96661.95
2024-01-14T15:58:40.599Z,96657.23
2024-01-14T16:01:14.228Z,96653.83
2024-01-14T16:03:45.024Z,96650.48
2024-01-14T16:06:14.291Z,96652.22
2024-01-14T16:08:42.328Z,96651.82
2024-01-14T16:11:10.244Z,96645.13
2024-01-14T16:13:37.831Z,96644.96
2024-01-14T16:16:06.706Z,96641.14
2024-01-14T16:18:35.123Z,96640.77
2024-01-14T16:21:06.169Z,96643.88
2024-01-14T16:23:40.183Z,96634.44
2024-01-14T16:26:09.453Z,96633.23
2024-01-14T16:28:37.391Z,96630.46
2024-01-14T16:31:11.724Z,96626.89
2024-01-14T16:33:44.129Z,96631.03
2024-01-14T16:36:17.054Z,96620.14
2024-01-14T16:38:45.787Z,96621.48
2024-01-14T16:41:13.683Z,96617.10
2024-01-14T16:43:41.439Z,96618.30
2024-01-14T16:46:09.205Z,96623.95
2024-01-14T16:48:37.080Z,96621.84
2024-01-14T16:51:09.280Z,96621.98
2024-01-14T16:53:41.162Z,96614.80
2024-01-14T16:56:14.344Z,96609.95
2024-01-14T16:58:44.077Z,96605.56
2024-01-14T17:01:16.548Z,96603.01
2024-01-14T17:03:51.021Z,96605.38
2024-01-14T17:06:20.055Z,96612.58
2024-01-14T17:08:48.812Z,96608.53
2024-01-14T17:11:20.164Z,96608.00
2024-01-14T17:13:47.588Z,96611.20
2024-01-14T17:16:27.104Z,96608.14
2024-01-14T17:18:59.997Z,96604.08
2024-01-14T17:21:29.077Z,96603.54
2024-01-14T17:23:56.897Z,96601.94
2024-01-14T17:26:24.097Z,96600.80
2024-01-14T17:28:51.222Z,96595.92
2024-01-14T17:31:19.295Z,96597.70
2024-01-14T17:33:49.231Z,96598.67
2024-01-14T17:36:18.633Z,96600.27
2024-01-14T17:38:48.111Z,96605.08
2024-01-14T17:41:15.971Z,96607.08
2024-01-14T17:43:43.282Z,96607.67
2024-01-14T17:46:11.182Z,96604.45
2024-01-14T17:48:40.865Z,96605.06
2024-01-14T17:51:10.464Z,96602.90
2024-01-14T17:53:42.741Z,96601.89
2024-01-14T17:56:13.083Z,96600.33
2024-01-14T17:58:41.835Z,96598.79
2024-01-14T18:01:11.269Z,96593.68
2024-01-14T18:03:41.629Z,96587.23
2024-01-14T18:06:10.983Z,96585.66
2024-01-14T18:08:38.744Z,96583.33
2024-01-14T18:11:05.878Z,96580.63
2024-01-14T18:13:32.983Z,96581.34
2024-01-14T18:16:01.899Z,96581.10
2024-01-14T18:18:29.565Z,96579.10
2024-01-14T18:20:57.775Z,96577.70
2024-01-14T18:23:25.882Z,96580.20
2024-01-14T18:25:53.344Z,96582.20
2024-01-14T18:28:20.560Z,96581.19
2024-01-14T18:30:47.909Z,96579.14
2024-01-14T18:33:15.519Z,96573.70
2024-01-14T18:35:44.393Z,96573.64
2024-01-14T18:38:14.204Z,96572.08
2024-01-14T18:40:41.447Z,96572.90
2024-01-14T18:43:13.172Z,96569.80
2024-01-14T18:45:40.498Z,96564.19
2024-01-14T18:48:08.613Z,96564.23
2024-01-14T18:50:36.889Z,96559.27
2024-01-14T18:53:06.118Z,96560.77
2024-01-14T18:55:36.410Z,96557.80
2024-01-14T18:58:03.988Z,96557.11
2024-01-14T19:00:31.645Z,96553.79
2024-01-14T19:02:59.252Z,96552.20
2024-01-14T19:05:27.901Z,96555.93
2024-01-14T19:07:55.201Z,96551.27
2024-01-14T19:10:22.287Z,96552.11
2024-01-14T19:12:50.643Z,96546.77
2024-01-14T19:15:19.062Z,96546.68
2024-01-14T19:17:46.265Z,96542.83
2024-01-14T19:20:13.574Z,96542.77
2024-01-14T19:22:41.087Z,96534.10
2024-01-14T19:25:10.620Z,96536.17
2024-01-14T19:27:38.270Z,96534.14
2024-01-14T19:30:07.456Z,96529.16
2024-01-14T19:32:35.119Z,96529.20
2024-01-14T19:35:02.465Z,96527.60
2024-01-14T19:37:30.919Z,96522.31
2024-01-14T19:39:59.763Z,96521.28
2024-01-14T19:42:27.358Z,96518.73
2024-01-14T19:44:54.827Z,96517.72
2024-01-14T19:47:22.790Z,96515.83
2024-01-14T19:49:49.932Z,96509.55
2024-01-14T19:52:17.196Z,96506.83
2024-01-14T19:54:44.639Z,96504.61
2024-01-14T19:57:12.035Z,96503.30
2024-01-14T19:59:39.270Z,96492.39
2024-01-14T20:02:06.821Z,96492.90
2024-01-14T20:04:33.943Z,96489.95
2024-01-14T20:07:01.172Z,96481.61
2024-01-14T20:09:28.324Z,96477.37
2024-01-14T20:12:01.131Z,96473.36
2024-01-14T20:14:28.909Z,96469.98
2024-01-14T20:16:57.415Z,96470.75
2024-01-14T20:19:25.018Z,96470.00
2024-01-14T20:21:52.839Z,96464.23
2024-01-14T20:24:21.744Z,96459.75
2024-01-14T20:26:49.209Z,96460.10
2024-01-14T20:29:16.364Z,96456.49
2024-01-14T20:31:43.636Z,96451.18
2024-01-14T20:34:11.178Z,96452.11
2024-01-14T20:36:38.571Z,96446.75
2024-01-14T20:39:06.109Z,96439.81
2024-01-14T20:41:33.370Z,96440.66
2024-01-14T20:44:00.666Z,96435.13
2024-01-14T20:46:27.886Z,96429.83
2024-01-14T20:48:55.069Z,96443.42
2024-01-14T20:51:22.990Z,96445.25
2024-01-14T20:53:50.255Z,96439.08
2024-01-14T20:56:17.512Z,96434.67
2024-01-14T20:58:44.769Z,96426.39
2024-01-14T21:01:11.974Z,96428.81
2024-01-14T21:03:39.871Z,96423.73
2024-01-14T21:06:11.275Z,96422.23
2024-01-14T21:08:40.145Z,96416.50
2024-01-14T21:11:07.700Z,96409.28
2024-01-14T21:13:34.854Z,96399.44
2024-01-14T21:16:01.917Z,96386.45
2024-01-14T21:18:29.303Z,96385.02
2024-01-14T21:20:57.546Z,96388.86
2024-01-14T21:23:24.708Z,96383.63
2024-01-14T21:25:51.823Z,96383.23
2024-01-14T21:28:19.441Z,96386.52
2024-01-14T21:30:46.683Z,96382.89
2024-01-14T21:33:14.257Z,96386.20
2024-01-14T21:35:41.493Z,96391.84
2024-01-14T21:38:08.536Z,96393.70
2024-01-14T21:40:35.758Z,96392.10
2024-01-14T21:43:02.839Z,96384.91
2024-01-14T21:45:30.122Z,96381.23
2024-01-14T21:47:57.440Z,96379.59
2024-01-14T21:50:24.726Z,96373.83
2024-01-14T21:52:51.728Z,96371.98
2024-01-14T21:55:19.241Z,96369.11
2024-01-14T21:57:46.501Z,96361.83
2024-01-14T22:00:14.314Z,96359.52
2024-01-14T22:02:41.542Z,96356.59
2024-01-14T22:05:09.092Z,96358.27
2024-01-14T22:07:36.328Z,96361.02
2024-01-14T22:10:03.713Z,96355.19
2024-01-14T22:12:30.914Z,96348.23
2024-01-14T22:14:58.118Z,96341.52
2024-01-14T22:17:25.307Z,96340.06
2024-01-14T22:19:52.776Z,96336.88
2024-01-14T22:22:20.093Z,96327.52
2024-01-14T22:24:47.458Z,96321.75
2024-01-14T22:27:14.741Z,96325.97
2024-01-14T22:29:41.976Z,96320.54
2024-01-14T22:32:09.221Z,96316.28
2024-01-14T22:34:36.665Z,96314.42
2024-01-14T22:37:04.224Z,96322.48
2024-01-14T22:39:32.496Z,96320.68
2024-01-14T22:41:59.600Z,96324.52
2024-01-14T22:44:26.945Z,96320.48
2024-01-14T22:46:55.121Z,96318.38
2024-01-14T22:49:22.332Z,96316.70
2024-01-14T22:51:50.078Z,96321.52
2024-01-14T22:54:17.598Z,96311.19
2024-01-14T22:56:44.868Z,96311.27
2024-01-14T22:59:12.042Z,96303.58
2024-01-14T23:01:39.244Z,96297.41
2024-01-14T23:04:08.636Z,96292.30
2024-01-14T23:06:36.204Z,96289.13
2024-01-14T23:09:03.899Z,96282.45
2024-01-14T23:11:31.600Z,96277.15
2024-01-14T23:13:58.827Z,96274.51
2024-01-14T23:16:25.985Z,96276.11
2024-01-14T23:18:53.374Z,96276.36
2024-01-14T23:21:20.615Z,96274.59
2024-01-14T23:23:49.104Z,96269.52
2024-01-14T23:26:16.192Z,96271.56
2024-01-14T23:28:43.494Z,96273.45
2024-01-14T23:31:10.720Z,96268.75
2024-01-14T23:33:38.452Z,96264.05
2024-01-14T23:36:06.108Z,96256.39
2024-01-14T23:38:33.341Z,96248.90
2024-01-14T23:41:00.399Z,96243.98
2024-01-14T23:43:27.756Z,96234.70
2024-01-14T23:45:54.937Z,96228.73
2024-01-14T23:48:22.390Z,96217.23
2024-01-14T23:50:49.657Z,96218.31
2024-01-14T23:53:17.163Z,96219.23
2024-01-14T23:55:44.336Z,96213.77
2024-01-14T23:58:14.102Z,96213.05
